Etusivu
METAR-TAF:

METAR-TAF

Lentoasemat :

Campo, Kalifornia, Yhdysvallat

Leveyspiiri: 32-37-34N, Pituuspiiri: 116-28-06W, korkeus merenpinnasta: 807 m

Tämänhetkinen sää

Tämä raportti tehtiin 27 minuuttia sitten, kello 10.52 UTC
Tuuli 8 kn lounaasta
Lämpötila 8°C
Kosteus 87%
Ilmanpaine 1013 hPa

METAR: KCZZ 151052Z AUTO 23008KT 08/06 A2991 RMK AO1 SLP112 T00830061

Aika: 03:19 (11:19 UTC)


TAF: puuttuu

Säähavainnot ja -ennusteet yli 4000 lentoasemalta (METAR- ja TAF-raportit).

Käytössä olevat sääasemat on merkitty karttaan keltaisilla ja punaisilla pisteillä.

Aseta hiiri pisteen päälle nähdäksesi sääaseman nimen.

Klikkaa sitten nähdäksesi säähavainnot ja -ennusteet.

Kartan vaihtaminen: klikkaa mustalla rastilla varustettuja vihreitä pisteitä, niin voit zoomata sisään; viivalla varustettua vihreää pistettä, niin voit zoomata ulos tai vihreitä nuolia, niin pääset viereisille kartoille.


METAR-TAF: